Time;durP1;ratioP1;P1;durP2;ratioP2;P2;SDS_P1;SDS_P2;PMS_P1;PMS_P2;Temp;Humidity;BMP_temperature;BMP_pressure;BME280_temperature;BME280_humidity;BME280_pressure;Samples;Min_cycle;Max_cycle;Signal;HPM_P1;HPM_P2
2023/12/22 00:00:07;;;;;;;7.43;2.33;;;5.80;99.90;;;;;;5094553;28;20469;-75
2023/12/22 00:02:36;;;;;;;8.30;4.00;;;5.80;99.90;;;;;;5093208;28;20451;-76
2023/12/22 00:05:05;;;;;;;8.10;2.70;;;5.80;99.90;;;;;;5094539;28;20535;-76
2023/12/22 00:07:33;;;;;;;9.73;3.03;;;5.70;99.90;;;;;;5094674;28;20436;-76
2023/12/22 00:10:01;;;;;;;8.97;2.93;;;5.70;99.90;;;;;;5094196;28;20475;-76
2023/12/22 00:12:29;;;;;;;9.20;2.50;;;5.70;99.90;;;;;;5094445;28;20470;-76
2023/12/22 00:14:58;;;;;;;6.50;2.87;;;5.70;99.90;;;;;;5094363;28;20464;-76
2023/12/22 00:17:27;;;;;;;8.53;2.40;;;5.70;99.90;;;;;;5094130;28;20490;-76
2023/12/22 00:19:58;;;;;;;7.53;2.40;;;5.70;99.90;;;;;;5094225;28;20446;-76
2023/12/22 00:22:27;;;;;;;5.47;2.33;;;5.70;99.90;;;;;;5094341;28;20417;-77
2023/12/22 00:24:55;;;;;;;7.57;2.47;;;5.70;99.90;;;;;;5094056;28;20484;-76
2023/12/22 00:27:24;;;;;;;7.10;2.37;;;5.70;99.90;;;;;;5094261;28;20440;-76
2023/12/22 00:29:52;;;;;;;11.60;2.77;;;5.70;99.90;;;;;;5092575;28;20498;-76
2023/12/22 00:32:20;;;;;;;10.30;2.40;;;5.70;99.90;;;;;;5093891;28;20809;-76
2023/12/22 00:34:50;;;;;;;7.30;2.30;;;5.60;99.90;;;;;;5092507;28;20448;-76
2023/12/22 00:37:18;;;;;;;6.03;1.73;;;5.50;99.90;;;;;;5092554;28;20440;-76
2023/12/22 00:39:46;;;;;;;5.13;2.37;;;5.50;99.90;;;;;;5093793;28;20420;-76
2023/12/22 00:42:15;;;;;;;9.03;1.77;;;5.40;99.90;;;;;;5091575;28;20440;-76
2023/12/22 00:44:43;;;;;;;3.00;1.30;;;5.40;99.90;;;;;;5093493;28;20447;-76
2023/12/22 00:47:12;;;;;;;6.27;2.30;;;5.40;99.90;;;;;;5092411;28;20513;-76
2023/12/22 00:49:40;;;;;;;5.87;1.97;;;5.40;99.90;;;;;;5092225;28;20470;-76
2023/12/22 00:52:10;;;;;;;6.03;3.00;;;5.30;99.90;;;;;;5093591;28;20519;-76
2023/12/22 00:54:38;;;;;;;8.00;2.60;;;5.30;99.90;;;;;;5092225;28;20501;-76
2023/12/22 00:57:06;;;;;;;12.03;2.70;;;5.30;99.90;;;;;;5093506;28;20444;-76
2023/12/22 00:59:34;;;;;;;6.93;1.97;;;5.30;99.90;;;;;;5093717;28;20429;-76
2023/12/22 01:02:02;;;;;;;6.67;1.83;;;5.30;99.90;;;;;;5092194;28;20557;-76
2023/12/22 01:04:31;;;;;;;7.93;2.20;;;5.30;99.90;;;;;;5092157;28;20491;-76
2023/12/22 01:06:59;;;;;;;7.83;2.10;;;5.30;99.90;;;;;;5092131;28;20496;-77
2023/12/22 01:09:29;;;;;;;7.27;2.40;;;5.30;99.90;;;;;;5092091;28;20874;-77
2023/12/22 01:11:59;;;;;;;10.30;2.97;;;5.30;99.90;;;;;;5093560;28;20450;-77
2023/12/22 01:14:27;;;;;;;13.97;3.00;;;5.20;99.90;;;;;;5092106;28;20449;-77
2023/12/22 01:16:55;;;;;;;9.10;2.50;;;5.20;99.90;;;;;;5091952;28;20460;-76
2023/12/22 01:19:23;;;;;;;9.60;2.50;;;5.10;99.90;;;;;;5092021;28;20446;-77
2023/12/22 01:21:51;;;;;;;12.10;3.30;;;5.10;99.90;;;;;;5093251;28;20436;-76
2023/12/22 01:24:20;;;;;;;9.70;2.60;;;5.10;99.90;;;;;;5093214;28;20431;-76
2023/12/22 01:26:50;;;;;;;9.33;3.27;;;5.10;99.90;;;;;;5091853;28;20476;-76
2023/12/22 01:29:18;;;;;;;15.40;3.10;;;5.10;99.90;;;;;;5092135;28;20817;-76
2023/12/22 01:31:46;;;;;;;12.03;2.63;;;5.20;99.90;;;;;;5093431;28;20795;-77
2023/12/22 01:34:15;;;;;;;12.40;3.10;;;5.10;99.90;;;;;;5093442;28;20917;-78
2023/12/22 01:36:43;;;;;;;15.27;3.10;;;5.20;99.90;;;;;;5092999;28;20472;-77
2023/12/22 01:39:11;;;;;;;8.73;3.77;;;5.20;99.90;;;;;;5093173;28;20431;-77
2023/12/22 01:41:39;;;;;;;12.60;2.77;;;5.20;99.90;;;;;;5093487;28;20432;-77
2023/12/22 01:44:09;;;;;;;12.00;3.73;;;5.20;99.90;;;;;;5091857;28;20444;-76
2023/12/22 01:46:38;;;;;;;8.40;3.10;;;5.10;99.90;;;;;;5093037;28;20469;-76
2023/12/22 01:49:08;;;;;;;7.40;2.70;;;5.10;99.90;;;;;;5093102;28;20826;-76
2023/12/22 01:51:40;;;;;;;8.70;2.70;;;5.10;99.90;;;;;;5091826;28;20435;-77
2023/12/22 01:54:08;;;;;;;9.77;3.00;;;5.10;99.90;;;;;;5095621;28;20424;-76
2023/12/22 01:56:37;;;;;;;7.10;2.17;;;5.10;99.90;;;;;;5097245;28;20915;-77
2023/12/22 01:59:05;;;;;;;5.83;1.93;;;5.10;99.90;;;;;;5096212;28;20448;-77
2023/12/22 02:01:35;;;;;;;7.87;1.73;;;5.10;99.90;;;;;;5096701;28;20442;-77
2023/12/22 02:04:05;;;;;;;3.27;0.93;;;5.00;99.90;;;;;;5097498;28;20469;-76
2023/12/22 02:06:36;;;;;;;3.27;1.30;;;4.90;99.90;;;;;;5095499;28;20512;-76
2023/12/22 02:09:05;;;;;;;4.30;1.00;;;4.80;99.90;;;;;;5096771;28;20967;-76
2023/12/22 02:11:33;;;;;;;4.03;1.10;;;4.70;99.90;;;;;;5096663;28;20432;-75
2023/12/22 02:14:01;;;;;;;4.27;1.23;;;4.70;99.90;;;;;;5096576;28;20499;-75
2023/12/22 02:16:40;;;;;;;6.67;1.83;;;4.60;99.90;;;;;;5096431;28;20483;-75
2023/12/22 02:19:22;;;;;;;4.60;1.73;;;4.60;99.90;;;;;;5095241;28;20436;-75
2023/12/22 02:22:05;;;;;;;7.20;2.47;;;4.50;99.90;;;;;;5095149;28;20857;-75
2023/12/22 02:24:38;;;;;;;6.73;2.10;;;4.50;99.90;;;;;;5094997;28;20546;-75
2023/12/22 02:27:26;;;;;;;6.93;2.27;;;4.50;99.90;;;;;;5094995;28;20490;-75
2023/12/22 02:30:01;;;;;;;8.67;2.67;;;4.50;99.90;;;;;;5096494;28;20926;-76
2023/12/22 02:32:35;;;;;;;9.30;2.53;;;4.50;99.90;;;;;;5095228;28;20439;-76
2023/12/22 02:35:07;;;;;;;12.23;2.67;;;4.50;99.90;;;;;;5096146;28;20555;-76
2023/12/22 02:37:36;;;;;;;12.73;3.80;;;4.60;99.90;;;;;;5094939;28;20464;-75
2023/12/22 02:40:09;;;;;;;9.53;2.70;;;4.60;99.90;;;;;;5096217;28;20436;-77
2023/12/22 02:42:38;;;;;;;12.47;3.50;;;4.60;99.90;;;;;;5096145;28;20423;-74
2023/12/22 02:45:07;;;;;;;7.27;2.60;;;4.60;99.90;;;;;;5094452;28;20525;-75
2023/12/22 02:47:35;;;;;;;7.40;2.17;;;4.60;99.90;;;;;;5096009;28;20408;-74
2023/12/22 02:50:04;;;;;;;11.23;3.07;;;4.70;99.90;;;;;;5094837;28;20478;-75
2023/12/22 02:52:32;;;;;;;12.53;2.60;;;4.70;99.90;;;;;;5094757;28;20448;-75
2023/12/22 02:55:01;;;;;;;8.73;3.30;;;4.70;99.90;;;;;;5094613;28;20468;-75
2023/12/22 02:57:30;;;;;;;7.57;2.10;;;4.70;99.90;;;;;;5095936;28;20436;-75
2023/12/22 02:59:59;;;;;;;11.60;3.40;;;4.70;99.90;;;;;;5095903;28;20552;-75
2023/12/22 03:02:27;;;;;;;13.00;3.27;;;4.70;99.90;;;;;;5095809;28;20480;-75
2023/12/22 03:04:55;;;;;;;8.67;3.07;;;4.70;99.90;;;;;;5093644;28;20447;-75
2023/12/22 03:07:24;;;;;;;9.77;2.80;;;4.70;99.90;;;;;;5094404;28;20436;-75
2023/12/22 03:09:52;;;;;;;11.77;2.87;;;4.70;99.90;;;;;;5095633;28;20703;-75
2023/12/22 03:12:20;;;;;;;11.97;3.13;;;4.70;99.90;;;;;;5095609;28;20456;-75
2023/12/22 03:14:50;;;;;;;13.10;3.30;;;4.70;99.90;;;;;;5095469;28;20464;-75
2023/12/22 03:17:18;;;;;;;14.37;3.70;;;4.80;99.90;;;;;;5095500;28;20429;-75
2023/12/22 03:19:46;;;;;;;10.23;3.40;;;4.80;99.90;;;;;;5094235;28;20440;-75
2023/12/22 03:22:15;;;;;;;11.67;3.17;;;4.80;99.90;;;;;;5094156;28;20483;-75
2023/12/22 03:24:43;;;;;;;10.90;3.33;;;4.80;99.90;;;;;;5095318;28;20432;-74
2023/12/22 03:27:16;;;;;;;14.23;3.90;;;4.80;99.90;;;;;;5094008;28;20444;-75
2023/12/22 03:29:44;;;;;;;10.00;3.53;;;4.80;99.90;;;;;;5095290;28;20507;-78
2023/12/22 03:32:14;;;;;;;6.80;2.17;;;4.90;99.90;;;;;;5095478;28;20424;-77
2023/12/22 03:34:42;;;;;;;7.13;2.63;;;4.90;99.90;;;;;;5094543;28;20457;-77
2023/12/22 03:37:10;;;;;;;8.93;2.80;;;4.90;99.90;;;;;;5094201;28;20498;-76
2023/12/22 03:39:38;;;;;;;7.73;2.90;;;4.90;99.90;;;;;;5095236;28;20466;-75
2023/12/22 03:42:07;;;;;;;11.20;2.63;;;4.90;99.90;;;;;;5095042;28;20833;-76
2023/12/22 03:44:35;;;;;;;7.30;2.50;;;4.90;99.90;;;;;;5093642;28;20460;-76
2023/12/22 03:47:04;;;;;;;8.70;2.73;;;4.80;99.90;;;;;;5094912;28;20449;-76
2023/12/22 03:49:33;;;;;;;7.20;2.47;;;4.80;99.90;;;;;;5093693;28;20968;-77
2023/12/22 03:52:02;;;;;;;6.73;2.00;;;4.80;99.90;;;;;;5094842;28;20507;-76
2023/12/22 03:54:30;;;;;;;6.13;2.67;;;4.80;99.90;;;;;;5093520;28;20548;-75
2023/12/22 03:56:58;;;;;;;6.20;1.90;;;4.80;99.90;;;;;;5093573;28;21092;-77
2023/12/22 03:59:27;;;;;;;4.70;1.93;;;4.80;99.90;;;;;;5093470;28;20904;-76
2023/12/22 04:01:57;;;;;;;8.00;2.27;;;4.80;99.90;;;;;;5093413;28;20447;-76
2023/12/22 04:04:27;;;;;;;8.47;2.10;;;4.80;99.90;;;;;;5095135;28;20423;-76
2023/12/22 04:06:57;;;;;;;13.23;2.97;;;4.80;99.90;;;;;;5093279;28;20507;-76
2023/12/22 04:09:25;;;;;;;13.17;2.83;;;4.80;99.90;;;;;;5093283;28;20494;-76
2023/12/22 04:11:54;;;;;;;10.03;3.50;;;4.80;99.90;;;;;;5094676;28;20464;-76
2023/12/22 04:14:22;;;;;;;11.60;3.30;;;4.80;99.90;;;;;;5093110;28;20440;-76
2023/12/22 04:16:52;;;;;;;12.30;3.13;;;4.80;99.90;;;;;;5094582;28;20542;-76
2023/12/22 04:19:21;;;;;;;13.90;3.20;;;4.80;99.90;;;;;;5093113;28;20472;-75
2023/12/22 04:21:49;;;;;;;10.90;3.70;;;4.80;99.90;;;;;;5092983;28;20455;-76
2023/12/22 04:24:19;;;;;;;14.73;3.67;;;4.80;99.90;;;;;;5092941;28;20945;-76
2023/12/22 04:26:47;;;;;;;9.47;3.93;;;4.80;99.90;;;;;;5092873;28;20468;-76
2023/12/22 04:29:15;;;;;;;10.80;3.47;;;4.90;99.90;;;;;;5094207;28;20444;-76
2023/12/22 04:31:44;;;;;;;13.20;4.40;;;4.90;99.90;;;;;;5092839;28;20472;-77
2023/12/22 04:34:15;;;;;;;13.60;5.07;;;4.90;99.90;;;;;;5094126;28;20436;-76
2023/12/22 04:36:44;;;;;;;10.70;3.70;;;4.90;99.90;;;;;;5092862;28;20525;-77
2023/12/22 04:39:12;;;;;;;11.60;3.30;;;4.90;99.90;;;;;;5092741;28;20440;-76
2023/12/22 04:41:42;;;;;;;8.90;3.60;;;4.90;99.90;;;;;;5094215;28;20532;-76
2023/12/22 04:44:10;;;;;;;14.83;4.07;;;5.00;99.90;;;;;;5092635;28;20527;-77
2023/12/22 04:46:38;;;;;;;11.50;3.87;;;5.00;99.90;;;;;;5092388;28;20504;-76
2023/12/22 04:49:06;;;;;;;17.47;4.90;;;5.00;99.90;;;;;;5092590;28;21022;-76
2023/12/22 04:51:35;;;;;;;14.60;4.23;;;5.00;99.90;;;;;;5094283;28;20797;-76
2023/12/22 04:54:03;;;;;;;16.70;4.03;;;5.10;99.90;;;;;;5093792;28;20436;-76
2023/12/22 04:56:32;;;;;;;15.73;4.30;;;5.10;99.90;;;;;;5092413;28;20485;-76
2023/12/22 04:59:01;;;;;;;19.23;4.17;;;5.10;99.90;;;;;;5093708;28;20429;-76
2023/12/22 05:01:30;;;;;;;13.40;4.73;;;5.10;99.90;;;;;;5092467;28;20437;-77
2023/12/22 05:03:58;;;;;;;11.37;4.20;;;5.20;99.90;;;;;;5093545;28;20459;-76
2023/12/22 05:06:26;;;;;;;13.63;5.07;;;5.20;99.90;;;;;;5093596;28;20455;-76
2023/12/22 05:08:54;;;;;;;25.27;5.13;;;5.30;99.90;;;;;;5093609;28;20789;-76
2023/12/22 05:11:23;;;;;;;10.97;3.50;;;5.30;99.90;;;;;;5093597;28;20902;-77
2023/12/22 05:13:51;;;;;;;11.40;3.60;;;5.30;99.90;;;;;;5092314;28;20463;-76
2023/12/22 05:16:21;;;;;;;11.33;3.67;;;5.40;99.90;;;;;;5093402;28;20479;-76
2023/12/22 05:18:50;;;;;;;8.73;3.13;;;5.40;99.90;;;;;;5092439;28;20456;-78
2023/12/22 05:21:18;;;;;;;5.40;2.00;;;5.40;99.90;;;;;;5092724;28;20547;-78
2023/12/22 05:23:46;;;;;;;7.93;2.67;;;5.30;99.90;;;;;;5092740;28;20452;-77
2023/12/22 05:26:18;;;;;;;9.20;2.40;;;5.20;99.90;;;;;;5092522;28;20471;-77
2023/12/22 05:28:47;;;;;;;12.70;4.07;;;5.00;99.90;;;;;;5094199;28;20436;-76
2023/12/22 05:31:15;;;;;;;13.80;3.73;;;4.90;99.90;;;;;;5096257;28;20571;-76
2023/12/22 05:33:45;;;;;;;7.27;3.10;;;4.90;99.90;;;;;;5097545;28;20439;-76
2023/12/22 05:36:13;;;;;;;13.33;3.17;;;4.80;99.90;;;;;;5097409;28;20513;-78
2023/12/22 05:38:42;;;;;;;6.40;1.97;;;4.80;99.90;;;;;;5096132;28;20447;-75
2023/12/22 05:41:10;;;;;;;6.30;2.23;;;4.80;99.90;;;;;;5096221;28;20444;-76
2023/12/22 05:43:38;;;;;;;6.67;1.90;;;4.80;99.90;;;;;;5097379;28;20467;-77
2023/12/22 05:46:06;;;;;;;5.00;1.33;;;4.80;99.90;;;;;;5097086;28;20475;-76
2023/12/22 05:48:35;;;;;;;6.37;1.90;;;4.80;99.90;;;;;;5097222;28;20433;-76
2023/12/22 05:51:07;;;;;;;6.43;2.10;;;4.80;99.90;;;;;;5097128;28;20443;-76
2023/12/22 05:53:35;;;;;;;4.90;1.90;;;4.80;99.90;;;;;;5095909;28;20485;-76
2023/12/22 05:56:04;;;;;;;11.57;2.37;;;4.80;99.90;;;;;;5096964;28;20522;-75
2023/12/22 05:58:32;;;;;;;4.23;1.40;;;4.80;99.90;;;;;;5097072;28;20436;-76
2023/12/22 06:01:01;;;;;;;3.50;1.50;;;4.80;99.90;;;;;;5095800;28;20441;-76
2023/12/22 06:03:29;;;;;;;5.87;1.70;;;4.80;99.90;;;;;;5095697;28;20984;-76
2023/12/22 06:05:57;;;;;;;5.20;1.63;;;4.80;99.90;;;;;;5095663;28;20890;-76
2023/12/22 06:08:27;;;;;;;8.83;2.80;;;4.80;99.90;;;;;;5096879;28;20438;-76
2023/12/22 06:10:55;;;;;;;5.90;2.33;;;4.80;99.90;;;;;;5096808;28;20436;-76
2023/12/22 06:13:24;;;;;;;5.73;2.20;;;4.80;99.90;;;;;;5096635;28;20464;-76
2023/12/22 06:15:52;;;;;;;8.60;2.33;;;4.90;99.90;;;;;;5095375;28;20487;-76
2023/12/22 06:18:21;;;;;;;12.70;3.60;;;4.90;99.90;;;;;;5096708;28;20431;-75
2023/12/22 06:20:49;;;;;;;6.70;2.70;;;4.90;99.90;;;;;;5095444;28;20456;-76
2023/12/22 06:23:18;;;;;;;7.90;2.27;;;4.90;99.90;;;;;;5095440;28;20812;-77
2023/12/22 06:25:48;;;;;;;10.17;2.27;;;5.00;99.90;;;;;;5095257;28;20468;-76
2023/12/22 06:28:17;;;;;;;10.13;2.93;;;5.00;99.90;;;;;;5095183;28;20463;-76
2023/12/22 06:30:46;;;;;;;9.83;2.67;;;5.00;99.90;;;;;;5096443;28;20429;-75
2023/12/22 06:33:15;;;;;;;5.83;2.00;;;5.00;99.90;;;;;;5095100;28;20514;-76
2023/12/22 06:35:44;;;;;;;7.17;2.33;;;5.00;99.90;;;;;;5095148;28;20468;-76
2023/12/22 06:38:13;;;;;;;7.07;2.10;;;5.00;99.90;;;;;;5096292;28;20441;-76
2023/12/22 06:40:41;;;;;;;7.07;2.60;;;5.00;99.90;;;;;;5095004;28;20506;-76
2023/12/22 06:43:11;;;;;;;9.87;2.70;;;5.00;99.90;;;;;;5094892;28;20444;-76
2023/12/22 06:45:40;;;;;;;10.13;2.57;;;5.00;99.90;;;;;;5094695;28;20486;-76
2023/12/22 06:48:09;;;;;;;10.63;3.13;;;5.00;99.90;;;;;;5094824;28;20456;-76
2023/12/22 06:50:39;;;;;;;5.50;2.43;;;5.00;99.90;;;;;;5094798;28;20448;-76
2023/12/22 06:53:08;;;;;;;13.17;3.43;;;4.90;99.90;;;;;;5094915;28;20972;-76
2023/12/22 06:55:49;;;;;;;12.23;3.30;;;4.80;99.90;;;;;;5094615;28;20468;-77
2023/12/22 06:58:21;;;;;;;11.87;3.00;;;4.80;99.90;;;;;;5094720;28;20440;-76
2023/12/22 07:00:50;;;;;;;8.90;3.00;;;4.80;99.90;;;;;;5094677;28;20872;-77
2023/12/22 07:03:19;;;;;;;9.70;4.07;;;4.80;99.90;;;;;;5094595;28;20452;-76
2023/12/22 07:05:47;;;;;;;12.80;3.40;;;4.80;99.90;;;;;;5095960;28;21027;-77
2023/12/22 07:08:16;;;;;;;16.33;4.53;;;4.80;99.90;;;;;;5094531;28;20525;-76
2023/12/22 07:10:45;;;;;;;14.70;4.00;;;4.80;99.90;;;;;;5094400;28;20442;-76
2023/12/22 07:13:14;;;;;;;17.27;4.00;;;4.80;99.90;;;;;;5094347;28;20464;-76
2023/12/22 07:15:43;;;;;;;13.70;4.33;;;4.80;99.90;;;;;;5095510;28;20481;-76
2023/12/22 07:18:12;;;;;;;12.73;3.87;;;4.80;99.90;;;;;;5094379;28;20448;-76
2023/12/22 07:20:40;;;;;;;13.40;4.60;;;4.80;99.90;;;;;;5094223;28;20938;-76
2023/12/22 07:23:11;;;;;;;15.73;4.47;;;4.80;99.90;;;;;;5094169;28;20448;-77
2023/12/22 07:25:40;;;;;;;11.70;3.87;;;4.80;99.90;;;;;;5095318;28;20471;-77
2023/12/22 07:28:08;;;;;;;20.60;4.73;;;4.80;99.90;;;;;;5094301;28;20467;-76
2023/12/22 07:30:36;;;;;;;13.03;4.00;;;4.80;99.90;;;;;;5094002;28;20470;-76
2023/12/22 07:33:06;;;;;;;14.70;5.00;;;4.80;99.90;;;;;;5093938;28;20469;-76
2023/12/22 07:35:35;;;;;;;18.90;5.67;;;4.80;99.90;;;;;;5093991;28;20483;-77
2023/12/22 07:38:03;;;;;;;17.27;5.40;;;4.90;99.90;;;;;;5093863;28;20451;-77
2023/12/22 07:40:32;;;;;;;15.97;6.30;;;4.90;99.90;;;;;;5094142;28;20441;-76
2023/12/22 07:43:00;;;;;;;25.43;7.00;;;5.00;99.90;;;;;;5094049;28;20437;-76
2023/12/22 07:45:29;;;;;;;17.20;5.97;;;5.10;99.90;;;;;;5093535;28;21091;-77
2023/12/22 07:47:57;;;;;;;21.27;6.53;;;5.10;99.90;;;;;;5095390;28;20472;-76
2023/12/22 07:50:29;;;;;;;18.77;6.33;;;5.10;99.90;;;;;;5093361;28;20533;-76
2023/12/22 07:52:58;;;;;;;19.30;5.23;;;5.10;99.90;;;;;;5093501;28;20502;-76
2023/12/22 07:55:29;;;;;;;15.17;4.90;;;5.20;99.90;;;;;;5095334;28;20534;-78
2023/12/22 07:57:58;;;;;;;19.03;6.43;;;5.20;99.90;;;;;;5093911;28;20517;-76
2023/12/22 08:00:26;;;;;;;11.27;5.07;;;5.30;99.90;;;;;;5093509;28;20540;-76
2023/12/22 08:02:54;;;;;;;14.67;5.00;;;5.30;99.90;;;;;;5094800;28;20849;-76
2023/12/22 08:05:22;;;;;;;17.17;5.23;;;5.40;99.90;;;;;;5094666;28;20450;-77
2023/12/22 08:07:52;;;;;;;14.50;4.60;;;5.50;99.90;;;;;;5093325;28;20444;-76
2023/12/22 08:10:20;;;;;;;11.70;5.20;;;5.50;99.90;;;;;;5094641;28;20489;-77
2023/12/22 08:12:49;;;;;;;16.60;4.90;;;5.60;99.90;;;;;;5093729;28;20496;-78
2023/12/22 08:15:17;;;;;;;11.90;4.87;;;5.60;99.90;;;;;;5093555;28;20514;-77
2023/12/22 08:17:56;;;;;;;15.47;4.87;;;5.70;99.90;;;;;;5093430;28;20535;-77
2023/12/22 08:20:24;;;;;;;17.23;4.93;;;5.70;99.90;;;;;;5093334;28;20433;-76
2023/12/22 08:23:01;;;;;;;16.53;5.93;;;5.80;99.90;;;;;;5093222;28;20475;-77
2023/12/22 08:25:36;;;;;;;22.33;5.80;;;5.80;99.90;;;;;;5093016;28;21034;-75
2023/12/22 08:28:05;;;;;;;22.43;5.97;;;5.80;99.90;;;;;;5092991;28;20446;-76
2023/12/22 08:30:33;;;;;;;15.03;5.63;;;5.90;99.90;;;;;;5093017;28;20472;-76
2023/12/22 08:33:01;;;;;;;20.80;6.37;;;5.90;99.90;;;;;;5092980;28;20475;-76
2023/12/22 08:35:30;;;;;;;14.40;5.33;;;5.90;99.90;;;;;;5094618;28;20450;-76
2023/12/22 08:37:58;;;;;;;14.60;5.63;;;6.00;99.90;;;;;;5093420;28;20450;-77
2023/12/22 08:40:28;;;;;;;14.97;5.53;;;6.00;99.90;;;;;;5093252;28;20444;-77
2023/12/22 08:42:59;;;;;;;18.83;6.10;;;6.10;99.90;;;;;;5093459;28;20444;-76
2023/12/22 08:45:28;;;;;;;18.20;5.50;;;6.10;99.90;;;;;;5092719;28;20650;-76
2023/12/22 08:47:57;;;;;;;20.73;5.13;;;6.10;99.90;;;;;;5094282;28;20488;-77
2023/12/22 08:50:26;;;;;;;14.70;4.67;;;6.10;99.90;;;;;;5092877;28;20444;-76
2023/12/22 08:52:54;;;;;;;21.47;5.60;;;6.20;99.90;;;;;;5092522;28;20502;-76
2023/12/22 08:55:22;;;;;;;17.77;5.90;;;6.20;99.90;;;;;;5094074;28;20453;-76
2023/12/22 08:57:52;;;;;;;14.87;5.53;;;6.20;99.90;;;;;;5092521;28;20456;-76
2023/12/22 09:00:30;;;;;;;14.80;4.27;;;6.20;99.90;;;;;;5092514;28;20559;-74
2023/12/22 09:02:58;;;;;;;13.07;4.10;;;6.20;99.90;;;;;;5093481;28;20928;-77
2023/12/22 09:05:26;;;;;;;13.27;5.40;;;6.20;99.90;;;;;;5093687;28;20463;-77
2023/12/22 09:07:54;;;;;;;16.63;5.10;;;6.30;99.90;;;;;;5092625;28;20445;-77
2023/12/22 09:10:23;;;;;;;12.63;4.23;;;6.30;99.90;;;;;;5092429;28;20527;-76
2023/12/22 09:12:52;;;;;;;15.00;5.90;;;6.30;99.90;;;;;;5093617;28;20447;-76
2023/12/22 09:15:21;;;;;;;11.20;3.83;;;6.30;99.90;;;;;;5092279;28;20834;-77
2023/12/22 09:17:49;;;;;;;11.50;4.40;;;6.30;99.90;;;;;;5092280;28;20472;-76
2023/12/22 09:20:17;;;;;;;11.40;3.93;;;6.30;99.90;;;;;;5092236;28;20457;-77
2023/12/22 09:22:46;;;;;;;10.17;4.63;;;6.30;99.90;;;;;;5093789;28;20501;-76
2023/12/22 09:25:15;;;;;;;11.47;3.67;;;6.20;99.90;;;;;;5092372;28;20464;-77
2023/12/22 09:27:44;;;;;;;13.17;4.73;;;6.20;99.90;;;;;;5092187;28;20450;-76
2023/12/22 09:30:14;;;;;;;10.53;4.20;;;6.20;99.90;;;;;;5092134;28;20548;-76
2023/12/22 09:32:42;;;;;;;13.23;3.50;;;6.20;99.90;;;;;;5092157;28;20443;-77
2023/12/22 09:35:11;;;;;;;10.67;3.63;;;6.20;99.90;;;;;;5092202;28;21045;-77
2023/12/22 09:37:40;;;;;;;12.73;3.60;;;6.20;99.90;;;;;;5092650;28;20498;-76
2023/12/22 09:40:10;;;;;;;7.60;2.90;;;6.20;99.90;;;;;;5092284;28;20539;-75
2023/12/22 09:42:43;;;;;;;9.90;3.70;;;6.10;99.90;;;;;;5092910;28;20563;-76
2023/12/22 09:45:13;;;;;;;8.67;2.93;;;6.00;99.90;;;;;;5094239;28;20841;-76
2023/12/22 09:47:43;;;;;;;7.80;3.40;;;6.00;99.90;;;;;;5092312;28;20453;-75
2023/12/22 09:50:13;;;;;;;15.37;2.90;;;6.00;99.90;;;;;;5092441;28;20931;-78
2023/12/22 09:52:44;;;;;;;9.20;2.90;;;6.00;99.90;;;;;;5092530;28;20448;-77
2023/12/22 09:55:13;;;;;;;11.67;3.57;;;5.90;99.90;;;;;;5093934;28;20539;-77
2023/12/22 09:57:43;;;;;;;6.37;2.50;;;5.90;99.90;;;;;;5093410;28;20890;-78
2023/12/22 10:00:15;;;;;;;6.67;2.73;;;5.90;99.90;;;;;;5093732;28;20451;-78
2023/12/22 10:02:45;;;;;;;7.67;2.47;;;5.80;99.90;;;;;;5092647;28;20869;-78
2023/12/22 10:05:14;;;;;;;6.37;2.30;;;5.80;99.90;;;;;;5093966;28;20459;-77
2023/12/22 10:07:45;;;;;;;13.67;3.60;;;5.70;99.90;;;;;;5092384;28;20448;-77
2023/12/22 10:10:16;;;;;;;8.70;2.30;;;5.70;99.90;;;;;;5094786;28;20494;-78
2023/12/22 10:12:46;;;;;;;8.30;2.80;;;5.70;99.90;;;;;;5093491;28;20443;-78
2023/12/22 10:15:18;;;;;;;10.70;2.80;;;5.60;99.90;;;;;;5095488;28;20499;-76
2023/12/22 10:17:49;;;;;;;9.63;2.70;;;5.60;99.90;;;;;;5096993;28;20437;-76
2023/12/22 10:20:18;;;;;;;7.20;2.17;;;5.50;99.90;;;;;;5097847;28;20428;-74
2023/12/22 10:22:47;;;;;;;5.13;2.13;;;5.50;99.90;;;;;;5095659;28;20797;-76
2023/12/22 10:25:17;;;;;;;6.10;2.13;;;5.50;99.90;;;;;;5095146;28;20514;-75
2023/12/22 10:27:45;;;;;;;6.73;2.20;;;5.40;99.90;;;;;;5096770;28;20428;-76
2023/12/22 10:30:14;;;;;;;6.00;2.10;;;5.40;99.90;;;;;;5096403;28;20436;-76
2023/12/22 10:32:44;;;;;;;4.60;1.50;;;5.40;99.90;;;;;;5096563;28;20454;-75
2023/12/22 10:35:12;;;;;;;4.20;1.43;;;5.30;99.90;;;;;;5094920;28;20498;-76
2023/12/22 10:37:41;;;;;;;4.37;1.53;;;5.30;99.90;;;;;;5095017;28;20482;-76
2023/12/22 10:40:11;;;;;;;6.43;2.00;;;5.20;99.90;;;;;;5094974;28;20476;-76
2023/12/22 10:42:41;;;;;;;5.27;1.70;;;5.20;99.90;;;;;;5094984;28;20455;-76
2023/12/22 10:45:10;;;;;;;4.57;1.50;;;5.20;99.90;;;;;;5094638;28;20473;-75
2023/12/22 10:47:40;;;;;;;6.53;2.00;;;5.20;99.90;;;;;;5095019;28;20440;-76
2023/12/22 10:50:14;;;;;;;3.10;1.60;;;5.20;99.90;;;;;;5094748;28;20951;-76
2023/12/22 10:52:49;;;;;;;5.47;1.70;;;5.20;99.90;;;;;;5094765;28;20501;-76
2023/12/22 10:55:18;;;;;;;6.83;2.23;;;5.20;99.90;;;;;;5094613;28;20991;-76
2023/12/22 10:57:47;;;;;;;7.07;2.00;;;5.10;99.90;;;;;;5094571;28;21018;-75
2023/12/22 11:00:17;;;;;;;4.63;2.10;;;5.20;99.90;;;;;;5094537;28;20442;-76
2023/12/22 11:02:49;;;;;;;8.70;2.63;;;5.20;99.90;;;;;;5094530;28;20445;-75
2023/12/22 11:05:21;;;;;;;7.50;3.03;;;5.20;99.90;;;;;;5094422;28;20456;-75
2023/12/22 11:07:50;;;;;;;8.53;3.30;;;5.20;99.90;;;;;;5094420;28;20466;-76
2023/12/22 11:10:22;;;;;;;9.70;2.87;;;5.10;99.90;;;;;;5095656;28;20936;-76
2023/12/22 11:12:52;;;;;;;9.57;2.93;;;5.20;99.90;;;;;;5095975;28;20423;-76
2023/12/22 11:15:22;;;;;;;7.77;2.90;;;5.20;99.90;;;;;;5095585;28;20498;-76
2023/12/22 11:17:53;;;;;;;5.67;2.00;;;5.20;99.90;;;;;;5095546;28;20417;-77
2023/12/22 11:20:26;;;;;;;8.60;2.63;;;5.20;99.90;;;;;;5095845;28;20432;-76
2023/12/22 11:22:57;;;;;;;8.30;2.47;;;5.20;99.90;;;;;;5095722;28;20843;-74
2023/12/22 11:25:27;;;;;;;11.10;3.23;;;5.30;99.90;;;;;;5094775;28;20460;-76
2023/12/22 11:27:57;;;;;;;8.57;2.90;;;5.30;99.90;;;;;;5093773;28;20447;-76
2023/12/22 11:30:26;;;;;;;10.07;3.27;;;5.30;99.90;;;;;;5093932;28;20484;-76
2023/12/22 11:32:55;;;;;;;10.60;3.17;;;5.30;99.90;;;;;;5095162;28;20471;-76
2023/12/22 11:35:25;;;;;;;9.77;3.37;;;5.40;99.90;;;;;;5095228;28;20524;-76
2023/12/22 11:38:03;;;;;;;13.10;3.83;;;5.40;99.90;;;;;;5095431;28;20432;-76
2023/12/22 11:40:32;;;;;;;9.07;3.90;;;5.40;99.90;;;;;;5093818;28;20933;-76
2023/12/22 11:43:02;;;;;;;16.50;4.23;;;5.40;99.90;;;;;;5093792;28;20436;-76
2023/12/22 11:45:32;;;;;;;13.63;3.50;;;5.50;99.90;;;;;;5094955;28;20478;-76
2023/12/22 11:48:07;;;;;;;10.13;3.10;;;5.50;99.90;;;;;;5093680;28;20460;-76
2023/12/22 11:50:38;;;;;;;13.27;3.40;;;5.50;99.90;;;;;;5095187;28;20417;-76
2023/12/22 11:53:20;;;;;;;12.50;4.27;;;5.60;99.90;;;;;;5093734;28;20539;-76
2023/12/22 11:56:02;;;;;;;9.70;3.77;;;5.60;99.90;;;;;;5093294;28;20879;-76
2023/12/22 11:58:41;;;;;;;10.17;3.53;;;5.70;99.90;;;;;;5094828;28;20484;-76
2023/12/22 12:01:10;;;;;;;12.63;4.13;;;5.70;99.90;;;;;;5093436;28;20449;-75
2023/12/22 12:03:42;;;;;;;12.83;3.83;;;5.70;99.90;;;;;;5095237;28;20431;-76
2023/12/22 12:06:22;;;;;;;13.80;4.70;;;5.70;99.90;;;;;;5094842;28;20463;-77
2023/12/22 12:08:51;;;;;;;18.03;5.20;;;5.80;99.90;;;;;;5094851;28;20429;-76
2023/12/22 12:11:20;;;;;;;11.13;4.80;;;5.80;99.90;;;;;;5093278;28;20487;-77
2023/12/22 12:13:49;;;;;;;12.03;4.20;;;5.80;99.90;;;;;;5093184;28;20445;-76
2023/12/22 12:16:21;;;;;;;11.33;3.57;;;5.90;99.90;;;;;;5093042;28;20482;-77
2023/12/22 12:18:52;;;;;;;10.53;4.63;;;5.90;99.90;;;;;;5093112;28;20445;-77
2023/12/22 12:21:23;;;;;;;9.50;3.70;;;6.00;99.90;;;;;;5093083;28;20448;-77
2023/12/22 12:23:52;;;;;;;12.67;3.87;;;6.00;99.90;;;;;;5094809;28;20904;-77
2023/12/22 12:26:20;;;;;;;11.90;4.20;;;6.00;99.90;;;;;;5092920;28;20464;-76
2023/12/22 12:28:50;;;;;;;8.10;2.83;;;6.10;99.90;;;;;;5092878;28;20528;-77
2023/12/22 12:31:18;;;;;;;11.47;3.40;;;6.10;99.90;;;;;;5094095;28;20483;-77
2023/12/22 12:33:47;;;;;;;10.93;3.93;;;6.10;99.90;;;;;;5094041;28;20457;-76
2023/12/22 12:36:17;;;;;;;11.13;3.20;;;6.10;99.90;;;;;;5093906;28;20481;-76
2023/12/22 12:38:56;;;;;;;9.43;3.50;;;6.20;99.90;;;;;;5092582;28;20941;-77
2023/12/22 12:41:31;;;;;;;12.60;3.47;;;6.20;99.90;;;;;;5092853;28;20441;-76
2023/12/22 12:44:05;;;;;;;19.07;4.43;;;6.20;99.90;;;;;;5092657;28;20440;-77
2023/12/22 12:46:34;;;;;;;9.60;3.13;;;6.30;99.90;;;;;;5092387;28;20478;-77
2023/12/22 12:49:06;;;;;;;11.50;3.57;;;6.30;99.90;;;;;;5093839;28;20434;-76
2023/12/22 12:51:39;;;;;;;8.70;3.70;;;6.30;99.90;;;;;;5092813;28;21027;-76
2023/12/22 12:54:09;;;;;;;10.00;3.17;;;6.30;99.90;;;;;;5092609;28;20849;-77
2023/12/22 12:56:39;;;;;;;10.47;3.37;;;6.30;99.90;;;;;;5093656;28;20493;-76
2023/12/22 12:59:09;;;;;;;9.97;3.00;;;6.40;99.90;;;;;;5094341;28;20423;-76
2023/12/22 13:01:41;;;;;;;11.87;3.40;;;6.40;99.90;;;;;;5092404;28;20998;-77
2023/12/22 13:04:10;;;;;;;9.13;3.30;;;6.40;99.90;;;;;;5093834;28;20421;-76